Tekonsha, Michigan
Current Conditions -  °F | °C
As of 6:13 AM on Tuesday 21 Oct 2014 (Local Time) from KRMY Reporting Station
Overcast Overcast  
Wind Chill: 46°   Ceiling: 1300
Heat Index: 46°   Visibility: 10mi
Dew Point: 41°   Wind: 3mph
Humidity: 85%   Direction: 310°NW
Pressure: 29.96"   Gusts: NA
Location:  42.09°N, 84.99°W
Report Text: KRMY 211013Z AUTO 31003KT 10SM OVC013 08/05 A2996 RMK AO2 T00750051
Loading
Personal Weather Stations






























Interactive Weather Map
Tropical Storm Tracking
New forecast layout! Learn more

10-Day Weather Forecast

Advertisements
Track Severe Weather on mobile